M/V Grande Caribe — WCX4495 — position and weather

sailwx.info

Track history (hours):
 
Tides and Currents Weather Stations Pressure Air Temp Water Temp Dewpoint Dewpoint Depression Visibility Wind Speed Wind Dir Waves Ship Positions

M/V Grande Caribe

More information available from US FCC via Universal Licensing System and Coast Guard Vessel Documentation Center.

Last reported at 2014-Sep-16 18:33 UTC. Time now 2014-Sep-16 19:30 UTC.
Position N 45°30' W 073°33'.

Length 55 m; draft 2.1 m.

Type: Ship. MMSI: 369023000.

Date/timePositionNaut miles runAvg speedWind from/ knotsBaromVisibWave heightAir tempDewpointWater temp
2014-Sep-16 18:33N 45°30' W 073°33'0 0.0
2014-Sep-16 17:33N 45°30' W 073°33'0 0.0
2014-Sep-16 16:33N 45°30' W 073°33'0 0.0
2014-Sep-16 15:33N 45°30' W 073°33'0 0.0
2014-Sep-16 14:33N 45°30' W 073°33'0 0.0
2014-Sep-16 13:33N 45°30' W 073°33'0 0.0
2014-Sep-16 12:33N 45°30' W 073°33'0 0.0
2014-Sep-16 11:33N 45°30' W 073°33'0 0.0
2014-Sep-16 00:24N 45°30' W 073°33'0 0.0
2014-Sep-15 17:13N 45°30' W 073°33'0 0.0
2014-Sep-15 16:33N 45°30' W 073°33'0 0.0
2014-Sep-15 15:16N 45°30' W 073°33'0 0.0
2014-Sep-15 13:33N 45°30' W 073°33'0 0.0
2014-Sep-15 12:27N 45°30' W 073°33'0 0.0
2014-Sep-15 04:18N 45°30' W 073°33'0 0.0
2014-Sep-15 03:22N 45°30' W 073°33'0 0.0
2014-Sep-15 02:33N 45°30' W 073°33'3 3.4
2014-Sep-15 01:33N 45°33' W 073°31'52 8.0
2014-Sep-14 19:04N 46°14' W 072°46'5 9.0
2014-Sep-14 18:33N 46°16' W 072°39'8 8.2
2014-Sep-14 17:33N 46°21' W 072°30'8 8.4
2014-Sep-14 16:33N 46°26' W 072°21'  
2014-Sep-11 16:33N 46°25' W 072°22'1111.4
2014-Sep-11 15:33N 46°18' W 072°35'4711.3
2014-Sep-11 11:24N 45°45' W 073°24'1012.4
2014-Sep-11 10:33N 45°36' W 073°30'6 6.1
2014-Sep-11 09:33N 45°30' W 073°33'0 0.0
2014-Sep-11 08:33N 45°30' W 073°33'0 0.0
2014-Sep-11 07:33N 45°30' W 073°33'0 0.0
2014-Sep-11 06:33N 45°30' W 073°33'0 0.0
2014-Sep-11 05:33N 45°30' W 073°33'0 0.0
2014-Sep-11 04:33N 45°30' W 073°33'0 0.0
2014-Sep-11 03:33N 45°30' W 073°33'0 0.0
2014-Sep-11 02:33N 45°30' W 073°33'0 0.0
2014-Sep-10 21:12N 45°30' W 073°33'0 0.0
2014-Sep-10 19:33N 45°30' W 073°33'0 0.0
2014-Sep-10 18:33N 45°30' W 073°33'0 0.0
2014-Sep-10 17:33N 45°30' W 073°33'0 0.0
2014-Sep-10 16:33N 45°30' W 073°33'0 0.0
2014-Sep-10 15:33N 45°30' W 073°33'0 0.0
2014-Sep-10 14:33N 45°30' W 073°33'0 0.0
2014-Sep-10 12:33N 45°30' W 073°33'0 0.0
2014-Sep-10 09:33N 45°30' W 073°33'0 0.0
2014-Sep-10 08:33N 45°30' W 073°33'0 0.0
2014-Sep-10 07:33N 45°30' W 073°33'0 0.0
2014-Sep-10 06:33N 45°30' W 073°33'0 0.0
2014-Sep-10 05:33N 45°30' W 073°33'0 0.0
2014-Sep-10 04:33N 45°30' W 073°33'0 0.0
2014-Sep-10 03:33N 45°30' W 073°33'0 0.0
2014-Sep-10 02:33N 45°30' W 073°33'0 0.0
2014-Sep-10 01:33N 45°30' W 073°33'0 0.0
2014-Sep-10 00:33N 45°30' W 073°33'1 1.1
2014-Sep-09 23:33N 45°30' W 073°31'1 1.4
2014-Sep-09 22:33N 45°28' W 073°30'6 2.5
2014-Sep-09 20:14N 45°24' W 073°36'3 4.7
2014-Sep-09 19:33N 45°25' W 073°41'1110.5
2014-Sep-09 18:32N 45°20' W 073°54'2 2.2
2014-Sep-09 17:33N 45°18' W 073°56'3 3.1
2014-Sep-09 16:33N 45°16' W 073°58'109 2.3
2014-Sep-07 16:32N 44°14' W 076°05'11 3.2
2014-Sep-07 13:12N 44°11' W 076°19'  
Track history (hours):
 
Tides and Currents Weather Stations Pressure Air Temp Water Temp Dewpoint Dewpoint Depression Visibility Wind Speed Wind Dir Waves Ship Positions

M/V Grande Caribe

More information available from US FCC via Universal Licensing System and Coast Guard Vessel Documentation Center.

Last reported at 2014-Sep-16 18:33 UTC. Time now 2014-Sep-16 19:30 UTC.
Position N 45°30' W 073°33'.

Length 55 m; draft 2.1 m.

Type: Ship. MMSI: 369023000.

Date/timePositionNaut miles runAvg speedWind from/ knotsBaromVisibWave heightAir tempDewpointWater temp
2014-Sep-16 18:33N 45°30' W 073°33'0 0.0
2014-Sep-16 17:33N 45°30' W 073°33'0 0.0
2014-Sep-16 16:33N 45°30' W 073°33'0 0.0
2014-Sep-16 15:33N 45°30' W 073°33'0 0.0
2014-Sep-16 14:33N 45°30' W 073°33'0 0.0
2014-Sep-16 13:33N 45°30' W 073°33'0 0.0
2014-Sep-16 12:33N 45°30' W 073°33'0 0.0
2014-Sep-16 11:33N 45°30' W 073°33'0 0.0
2014-Sep-16 00:24N 45°30' W 073°33'0 0.0
2014-Sep-15 17:13N 45°30' W 073°33'0 0.0
2014-Sep-15 16:33N 45°30' W 073°33'0 0.0
2014-Sep-15 15:16N 45°30' W 073°33'0 0.0
2014-Sep-15 13:33N 45°30' W 073°33'0 0.0
2014-Sep-15 12:27N 45°30' W 073°33'0 0.0
2014-Sep-15 04:18N 45°30' W 073°33'0 0.0
2014-Sep-15 03:22N 45°30' W 073°33'0 0.0
2014-Sep-15 02:33N 45°30' W 073°33'3 3.4
2014-Sep-15 01:33N 45°33' W 073°31'52 8.0
2014-Sep-14 19:04N 46°14' W 072°46'5 9.0
2014-Sep-14 18:33N 46°16' W 072°39'8 8.2
2014-Sep-14 17:33N 46°21' W 072°30'8 8.4
2014-Sep-14 16:33N 46°26' W 072°21'  
2014-Sep-11 16:33N 46°25' W 072°22'1111.4
2014-Sep-11 15:33N 46°18' W 072°35'4711.3
2014-Sep-11 11:24N 45°45' W 073°24'1012.4
2014-Sep-11 10:33N 45°36' W 073°30'6 6.1
2014-Sep-11 09:33N 45°30' W 073°33'0 0.0
2014-Sep-11 08:33N 45°30' W 073°33'0 0.0
2014-Sep-11 07:33N 45°30' W 073°33'0 0.0
2014-Sep-11 06:33N 45°30' W 073°33'0 0.0
2014-Sep-11 05:33N 45°30' W 073°33'0 0.0
2014-Sep-11 04:33N 45°30' W 073°33'0 0.0
2014-Sep-11 03:33N 45°30' W 073°33'0 0.0
2014-Sep-11 02:33N 45°30' W 073°33'0 0.0
2014-Sep-10 21:12N 45°30' W 073°33'0 0.0
2014-Sep-10 19:33N 45°30' W 073°33'0 0.0
2014-Sep-10 18:33N 45°30' W 073°33'0 0.0
2014-Sep-10 17:33N 45°30' W 073°33'0 0.0
2014-Sep-10 16:33N 45°30' W 073°33'0 0.0
2014-Sep-10 15:33N 45°30' W 073°33'0 0.0
2014-Sep-10 14:33N 45°30' W 073°33'0 0.0
2014-Sep-10 12:33N 45°30' W 073°33'0 0.0
2014-Sep-10 09:33N 45°30' W 073°33'0 0.0
2014-Sep-10 08:33N 45°30' W 073°33'0 0.0
2014-Sep-10 07:33N 45°30' W 073°33'0 0.0
2014-Sep-10 06:33N 45°30' W 073°33'0 0.0
2014-Sep-10 05:33N 45°30' W 073°33'0 0.0
2014-Sep-10 04:33N 45°30' W 073°33'0 0.0
2014-Sep-10 03:33N 45°30' W 073°33'0 0.0
2014-Sep-10 02:33N 45°30' W 073°33'0 0.0
2014-Sep-10 01:33N 45°30' W 073°33'0 0.0
2014-Sep-10 00:33N 45°30' W 073°33'1 1.1
2014-Sep-09 23:33N 45°30' W 073°31'1 1.4
2014-Sep-09 22:33N 45°28' W 073°30'6 2.5
2014-Sep-09 20:14N 45°24' W 073°36'3 4.7
2014-Sep-09 19:33N 45°25' W 073°41'1110.5
2014-Sep-09 18:32N 45°20' W 073°54'2 2.2
2014-Sep-09 17:33N 45°18' W 073°56'3 3.1
2014-Sep-09 16:33N 45°16' W 073°58'109 2.3
2014-Sep-07 16:32N 44°14' W 076°05'11 3.2
2014-Sep-07 13:12N 44°11' W 076°19'  

Dump ship's entire track history